Time;durP1;ratioP1;P1;durP2;ratioP2;P2;SDS_P1;SDS_P2;PMS_P1;PMS_P2;Temp;Humidity;BMP_temperature;BMP_pressure;BME280_temperature;BME280_humidity;BME280_pressure;Samples;Min_cycle;Max_cycle;Signal;HPM_P1;HPM_P2
2022/02/09 00:00:45;;;;;;;;;;;;;;;;;;5085539;28;20374;-67
2022/02/09 00:03:18;;;;;;;;;;;;;;;;;;5085971;28;19916;-67
2022/02/09 00:08:10;;;;;;;;;;;;;;;;;;5083106;28;19912;-67
2022/02/09 00:10:38;;;;;;;;;;;;;;;;;;5081964;28;19912;-67
2022/02/09 00:16:21;;;;;;;;;;;;;;;;;;5085572;28;19912;-67
2022/02/09 00:21:48;;;;;;;;;;;;;;;;;;5085627;28;19928;-67
2022/02/09 00:34:53;;;;;;;;;;;;;;;;;;5085217;28;19943;-67
2022/02/09 01:56:20;;;;;;;;;;;;;;;;;;5079986;28;19958;-67
2022/02/09 01:58:46;;;;;;;;;;;;;;;;;;5083681;28;19908;-67
2022/02/09 02:01:12;;;;;;;;;;;;;;;;;;5083859;28;19915;-67
2022/02/09 02:03:38;;;;;;;;;;;;;;;;;;5084861;28;19927;-67
2022/02/09 02:06:04;;;;;;;;;;;;;;;;;;5083971;28;19909;-67
2022/02/09 02:08:30;;;;;;;;;;;;;;;;;;5082595;28;19904;-67
2022/02/09 02:11:06;;;;;;;;;;;;;;;;;;5087287;28;20333;-67
2022/02/09 02:13:49;;;;;;;;;;;;;;;;;;5079263;28;19962;-67
2022/02/09 02:16:27;;;;;;;;;;;;;;;;;;5083122;28;20128;-67
2022/02/09 02:19:07;;;;;;;;;;;;;;;;;;5083195;28;19930;-67
2022/02/09 03:12:36;;;;;;;;;;;;;;;;;;5087418;28;20168;-66
2022/02/09 03:17:44;;;;;;;;;;;;;;;;;;5086729;28;19911;-66
2022/02/09 03:22:58;;;;;;;;;;;;;;;;;;5085898;28;19915;-66
2022/02/09 03:44:31;;;;;;;;;;;;;;;;;;5091079;28;20009;-66
2022/02/09 03:47:18;;;;;;;;;;;;;;;;;;5086347;28;19908;-66
2022/02/09 03:57:44;;;;;;;;;;;;;;;;;;5085818;28;20321;-66
2022/02/09 04:00:10;;;;;;;;;;;;;;;;;;5055522;28;20359;-66
2022/02/09 04:02:36;;;;;;;;;;;;;;;;;;5091656;28;19927;-66
2022/02/09 04:05:02;;;;;;;;;;;;;;;;;;5086856;28;20006;-66
2022/02/09 04:07:28;;;;;;;;;;;;;;;;;;5085016;28;19908;-66
2022/02/09 04:09:58;;;;;;;;;;;;;;;;;;5076380;28;19908;-66
2022/02/09 04:12:40;;;;;;;;;;;;;;;;;;5086344;28;19911;-66
2022/02/09 04:36:43;;;;;;;;;;;;;;;;;;5071397;28;19958;-65
2022/02/09 04:39:20;;;;;;;;;;;;;;;;;;5071818;28;20333;-65
2022/02/09 04:47:21;;;;;;;;;;;;;;;;;;5072836;28;19918;-63
2022/02/09 04:55:32;;;;;;;;;;;;;;;;;;5084907;28;20393;-65
2022/02/09 04:58:05;;;;;;;;;;;;;;;;;;5084454;28;19923;-65
2022/02/09 05:00:43;;;;;;;;;;;;;;;;;;5084403;28;19915;-64
2022/02/09 05:03:39;;;;;;;;;;;;;;;;;;5053368;28;19982;-65
2022/02/09 05:20:41;;;;;;;;;;;;;;;;;;5078772;28;19915;-65
2022/02/09 05:25:42;;;;;;;;;;;;;;;;;;5069889;28;20326;-65
2022/02/09 05:28:19;;;;;;;;;;;;;;;;;;5076680;28;20317;-65
2022/02/09 05:30:45;;;;;;;;;;;;;;;;;;5075054;28;20341;-65
2022/02/09 05:33:11;;;;;;;;;;;;;;;;;;5068616;28;19915;-65
2022/02/09 05:35:37;;;;;;;;;;;;;;;;;;5074171;28;19912;-65
2022/02/09 05:38:03;;;;;;;;;;;;;;;;;;5072563;28;19912;-65
2022/02/09 05:40:29;;;;;;;;;;;;;;;;;;5071850;28;19909;-65
2022/02/09 05:42:55;;;;;;;;;;;;;;;;;;5072077;28;20409;-65
2022/02/09 05:45:24;;;;;;;;;;;;;;;;;;5070551;28;19912;-64
2022/02/09 05:50:41;;;;;;;;;;;;;;;;;;5078985;28;19942;-67
2022/02/09 05:53:17;;;;;;;;;;;;;;;;;;5077789;28;19916;-65
2022/02/09 05:58:20;;;;;;;;;;;;;;;;;;5072960;28;19908;-69
2022/02/09 06:00:47;;;;;;;;;;;;;;;;;;5071149;28;19939;-69
2022/02/09 06:03:13;;;;;;;;;;;;;;;;;;5070975;28;19970;-70
2022/02/09 06:05:39;;;;;;;;;;;;;;;;;;5073260;28;19908;-69
2022/02/09 06:08:05;;;;;;;;;;;;;;;;;;5073583;28;19996;-69
2022/02/09 06:10:33;;;;;;;;;;;;;;;;;;5072481;28;19912;-69
2022/02/09 06:16:09;;;;;;;;;;;;;;;;;;5066822;28;19908;-68
2022/02/09 06:21:21;;;;;;;;;;;;;;;;;;5068230;28;20642;-68
2022/02/09 06:23:47;;;;;;;;;;;;;;;;;;5071745;28;20398;-68
2022/02/09 06:26:13;;;;;;;;;;;;;;;;;;5073723;28;20006;-68
2022/02/09 06:28:39;;;;;;;;;;;;;;;;;;5072379;28;19913;-68
2022/02/09 06:31:05;;;;;;;;;;;;;;;;;;5069677;28;19930;-67
2022/02/09 06:33:31;;;;;;;;;;;;;;;;;;5068585;28;19916;-69
2022/02/09 06:36:00;;;;;;;;;;;;;;;;;;5069119;28;19909;-69
2022/02/09 06:38:27;;;;;;;;;;;;;;;;;;5074757;28;20280;-69
2022/02/09 06:40:55;;;;;;;;;;;;;;;;;;5068441;28;19909;-69
2022/02/09 06:43:21;;;;;;;;;;;;;;;;;;5069380;28;19971;-70
2022/02/09 06:45:47;;;;;;;;;;;;;;;;;;5075610;28;19962;-70
2022/02/09 06:48:13;;;;;;;;;;;;;;;;;;5077509;28;19943;-70
2022/02/09 06:50:43;;;;;;;;;;;;;;;;;;5075821;28;19962;-69
2022/02/09 06:55:43;;;;;;;;;;;;;;;;;;5075934;28;19919;-70
2022/02/09 06:58:17;;;;;;;;;;;;;;;;;;5074516;28;20278;-70
2022/02/09 07:00:43;;;;;;;;;;;;;;;;;;5068572;28;19922;-69
2022/02/09 07:03:09;;;;;;;;;;;;;;;;;;5066422;28;19920;-70
2022/02/09 07:05:34;;;;;;;;;;;;;;;;;;5073506;28;19954;-71
2022/02/09 07:08:00;;;;;;;;;;;;;;;;;;5071174;28;19915;-71
2022/02/09 07:10:26;;;;;;;;;;;;;;;;;;5067061;28;19912;-70
2022/02/09 07:12:52;;;;;;;;;;;;;;;;;;5068949;28;19916;-70
2022/02/09 07:15:27;;;;;;;;;;;;;;;;;;5070608;28;20023;-69
2022/02/09 07:17:53;;;;;;;;;;;;;;;;;;5068005;28;19954;-69
2022/02/09 07:20:26;;;;;;;;;;;;;;;;;;5072007;28;20256;-69
2022/02/09 07:22:55;;;;;;;;;;;;;;;;;;5070425;28;19920;-69
2022/02/09 07:25:30;;;;;;;;;;;;;;;;;;5070589;28;19982;-69
2022/02/09 07:27:56;;;;;;;;;;;;;;;;;;5069774;28;19916;-69
2022/02/09 07:30:22;;;;;;;;;;;;;;;;;;5070689;28;20003;-70
2022/02/09 07:32:48;;;;;;;;;;;;;;;;;;5065208;28;19909;-69
2022/02/09 07:35:14;;;;;;;;;;;;;;;;;;5072095;28;19915;-71
2022/02/09 07:37:40;;;;;;;;;;;;;;;;;;5073068;28;19908;-71
2022/02/09 07:40:10;;;;;;;;;;;;;;;;;;5073462;28;19916;-70
2022/02/09 07:42:41;;;;;;;;;;;;;;;;;;5072038;28;19912;-71
2022/02/09 07:55:35;;;;;;;;;;;;;;;;;;5049465;28;19912;-71
2022/02/09 07:58:01;;;;;;;;;;;;;;;;;;5074445;28;19908;-70
2022/02/09 08:00:27;;;;;;;;;;;;;;;;;;5074290;28;19912;-70
2022/02/09 08:02:53;;;;;;;;;;;;;;;;;;5071603;28;19985;-69
2022/02/09 08:05:19;;;;;;;;;;;;;;;;;;5075627;28;19916;-70
2022/02/09 08:07:45;;;;;;;;;;;;;;;;;;5073678;28;19912;-70
2022/02/09 08:10:25;;;;;;;;;;;;;;;;;;5072795;28;19916;-71
2022/02/09 08:20:26;;;;;;;;;;;;;;;;;;5074366;28;20311;-70
2022/02/09 08:34:29;;;;;;;;;;;;;;;;;;5084763;28;19911;-71
2022/02/09 08:36:56;;;;;;;;;;;;;;;;;;5084702;28;19912;-70
2022/02/09 08:39:22;;;;;;;;;;;;;;;;;;5084546;28;19935;-70
2022/02/09 08:41:48;;;;;;;;;;;;;;;;;;5089872;28;19904;-70
2022/02/09 08:44:14;;;;;;;;;;;;;;;;;;5087827;28;20007;-71
2022/02/09 08:46:42;;;;;;;;;;;;;;;;;;5084806;28;20003;-71
2022/02/09 08:49:08;;;;;;;;;;;;;;;;;;5084227;28;20334;-71
2022/02/09 08:51:34;;;;;;;;;;;;;;;;;;5085221;28;19908;-71
2022/02/09 08:54:00;;;;;;;;;;;;;;;;;;5085658;28;19915;-71
2022/02/09 08:56:28;;;;;;;;;;;;;;;;;;5091167;28;19908;-70
2022/02/09 08:58:54;;;;;;;;;;;;;;;;;;5086045;28;19986;-70
2022/02/09 09:01:36;;;;;;;;;;;;;;;;;;5085997;28;20014;-70
2022/02/09 09:04:11;;;;;;;;;;;;;;;;;;5084347;28;19916;-70
2022/02/09 09:06:40;;;;;;;;;;;;;;;;;;5084609;28;19912;-70
2022/02/09 09:09:24;;;;;;;;;;;;;;;;;;5062192;28;19916;-69
2022/02/09 09:58:07;;;;;;;;;;;;;;;;;;5083669;28;19911;-69
2022/02/09 10:03:24;;;;;;;;;;;;;;;;;;5052845;28;19923;-70
2022/02/09 10:33:05;;;;;;;;;;;;;;;;;;5051578;28;19961;-69
2022/02/09 10:36:12;;;;;;;;;;;;;;;;;;5081690;28;19911;-69
2022/02/09 10:38:27;;;;;;;;;;;;;;;;;;5087268;28;19916;-70
2022/02/09 10:40:55;;;;;;;;;;;;;;;;;;5080925;28;20230;-69
2022/02/09 10:43:21;;;;;;;;;;;;;;;;;;5080928;28;19920;-70
2022/02/09 10:45:52;;;;;;;;;;;;;;;;;;5081137;28;19919;-69
2022/02/09 10:48:18;;;;;;;;;;;;;;;;;;5081564;28;20051;-69
2022/02/09 10:50:43;;;;;;;;;;;;;;;;;;5086343;28;20002;-69
2022/02/09 10:53:09;;;;;;;;;;;;;;;;;;5084230;28;19915;-70
2022/02/09 10:55:35;;;;;;;;;;;;;;;;;;5081918;28;20386;-70
2022/02/09 10:58:01;;;;;;;;;;;;;;;;;;5082138;28;19908;-70
2022/02/09 11:00:27;;;;;;;;;;;;;;;;;;5082942;28;20538;-70
2022/02/09 11:02:53;;;;;;;;;;;;;;;;;;5086018;28;19919;-67
2022/02/09 11:05:20;;;;;;;;;;;;;;;;;;5079735;28;19931;-64
2022/02/09 11:07:46;;;;;;;;;;;;;;;;;;5069930;28;19951;-63
2022/02/09 11:10:12;;;;;;;;;;;;;;;;;;5069600;28;19940;-64
2022/02/09 11:12:37;;;;;;;;;;;;;;;;;;5071547;28;19912;-66
2022/02/09 11:15:03;;;;;;;;;;;;;;;;;;5074032;28;19932;-65
2022/02/09 11:17:31;;;;;;;;;;;;;;;;;;5075195;28;19915;-65
2022/02/09 11:19:57;;;;;;;;;;;;;;;;;;5074054;28;19904;-65
2022/02/09 11:22:27;;;;;;;;;;;;;;;;;;5073493;28;19923;-65
2022/02/09 11:24:53;;;;;;;;;;;;;;;;;;5072975;28;19970;-64
2022/02/09 11:27:29;;;;;;;;;;;;;;;;;;5071428;28;19916;-65
2022/02/09 11:30:01;;;;;;;;;;;;;;;;;;5073467;28;20003;-65
2022/02/09 11:32:44;;;;;;;;;;;;;;;;;;5075104;28;20283;-68
2022/02/09 11:35:28;;;;;;;;;;;;;;;;;;5074294;28;19918;-65
2022/02/09 11:41:14;;;;;;;;;;;;;;;;;;5073596;28;20290;-63
2022/02/09 11:43:15;;;;;;;;;;;;;;;;;;5071023;28;19917;-63
2022/02/09 11:46:18;;;;;;;;;;;;;;;;;;5072685;28;19970;-63
2022/02/09 11:49:07;;;;;;;;;;;;;;;;;;5070946;28;19920;-62
2022/02/09 11:51:45;;;;;;;;;;;;;;;;;;5070339;28;19916;-62
2022/02/09 11:59:49;;;;;;;;;;;;;;;;;;5074848;28;19904;-63
2022/02/09 12:10:21;;;;;;;;;;;;;;;;;;5069462;28;20000;-64
2022/02/09 12:12:51;;;;;;;;;;;;;;;;;;5070913;28;20011;-64
2022/02/09 12:15:42;;;;;;;;;;;;;;;;;;5066100;28;19927;-63
2022/02/09 12:18:26;;;;;;;;;;;;;;;;;;5068631;28;19934;-62
2022/02/09 12:20:52;;;;;;;;;;;;;;;;;;5075449;28;20289;-60
2022/02/09 12:23:29;;;;;;;;;;;;;;;;;;5056264;28;20007;-62
2022/02/09 12:25:55;;;;;;;;;;;;;;;;;;5058242;28;19909;-60
2022/02/09 12:28:21;;;;;;;;;;;;;;;;;;5056776;28;19908;-61
2022/02/09 12:30:47;;;;;;;;;;;;;;;;;;5055816;28;20276;-61
2022/02/09 12:33:13;;;;;;;;;;;;;;;;;;5052938;28;19934;-60
2022/02/09 12:35:39;;;;;;;;;;;;;;;;;;5055554;28;19905;-63
2022/02/09 12:38:04;;;;;;;;;;;;;;;;;;5072539;28;19905;-61
2022/02/09 12:40:34;;;;;;;;;;;;;;;;;;5071605;28;20366;-67
2022/02/09 12:43:00;;;;;;;;;;;;;;;;;;5057084;28;20268;-62
2022/02/09 12:45:27;;;;;;;;;;;;;;;;;;5054828;28;19920;-61
2022/02/09 12:47:53;;;;;;;;;;;;;;;;;;5053120;28;20368;-64
2022/02/09 12:50:19;;;;;;;;;;;;;;;;;;5058623;28;19982;-62
2022/02/09 12:52:45;;;;;;;;;;;;;;;;;;5067327;28;19912;-61
2022/02/09 12:55:15;;;;;;;;;;;;;;;;;;5065746;28;19920;-61
2022/02/09 12:57:41;;;;;;;;;;;;;;;;;;5067964;28;20359;-60
2022/02/09 13:00:07;;;;;;;;;;;;;;;;;;5067580;28;19948;-60
2022/02/09 13:02:33;;;;;;;;;;;;;;;;;;5069655;28;20080;-60
2022/02/09 13:04:58;;;;;;;;;;;;;;;;;;5056618;28;19908;-60
2022/02/09 13:07:25;;;;;;;;;;;;;;;;;;5055043;28;19909;-63
2022/02/09 13:09:54;;;;;;;;;;;;;;;;;;5064901;28;20359;-61
2022/02/09 13:12:19;;;;;;;;;;;;;;;;;;5052779;28;19917;-61
2022/02/09 13:14:47;;;;;;;;;;;;;;;;;;5068072;28;20002;-62
2022/02/09 13:17:40;;;;;;;;;;;;;;;;;;5054268;28;19905;-62
2022/02/09 13:20:42;;;;;;;;;;;;;;;;;;5055464;28;20438;-62
2022/02/09 13:23:25;;;;;;;;;;;;;;;;;;5054506;28;19917;-63
2022/02/09 14:12:12;;;;;;;;;;;;;;;;;;5067693;28;19911;-63
2022/02/09 14:57:38;;;;;;;;;;;;;;;;;;5054134;28;20303;-64
2022/02/09 15:00:12;;;;;;;;;;;;;;;;;;5050535;28;19914;-64
2022/02/09 15:10:40;;;;;;;;;;;;;;;;;;5058328;28;19913;-65
2022/02/09 15:13:28;;;;;;;;;;;;;;;;;;5054896;28;19904;-67
2022/02/09 15:16:05;;;;;;;;;;;;;;;;;;5056086;28;20312;-66
2022/02/09 15:23:41;;;;;;;;;;;;;;;;;;5061680;28;19965;-65
2022/02/09 15:26:07;;;;;;;;;;;;;;;;;;5050146;28;20412;-65
2022/02/09 15:28:35;;;;;;;;;;;;;;;;;;5049810;28;19913;-64
2022/02/09 15:31:19;;;;;;;;;;;;;;;;;;5053440;28;20386;-65
2022/02/09 15:33:49;;;;;;;;;;;;;;;;;;5054473;28;19920;-64
2022/02/09 15:36:19;;;;;;;;;;;;;;;;;;5051070;28;20367;-64
2022/02/09 15:38:46;;;;;;;;;;;;;;;;;;5051090;28;19978;-63
2022/02/09 15:41:23;;;;;;;;;;;;;;;;;;5053397;28;19909;-65
2022/02/09 15:44:11;;;;;;;;;;;;;;;;;;5052931;28;20240;-64
2022/02/09 16:06:01;;;;;;;;;;;;;;;;;;5086148;28;19910;-65
2022/02/09 16:09:01;;;;;;;;;;;;;;;;;;5083875;28;19914;-64
2022/02/09 16:46:16;;;;;;;;;;;;;;;;;;5084668;28;20300;-65
2022/02/09 16:48:47;;;;;;;;;;;;;;;;;;5085050;28;19959;-65
2022/02/09 16:51:17;;;;;;;;;;;;;;;;;;5085477;28;20215;-65
2022/02/09 16:54:13;;;;;;;;;;;;;;;;;;5074699;28;19905;-65
2022/02/09 17:21:17;;;;;;;;;;;;;;;;;;5071788;28;20389;-66
2022/02/09 17:23:43;;;;;;;;;;;;;;;;;;5072112;28;19964;-67
2022/02/09 17:26:09;;;;;;;;;;;;;;;;;;5074433;28;19966;-67
2022/02/09 17:28:35;;;;;;;;;;;;;;;;;;5072093;28;20357;-67
2022/02/09 17:33:59;;;;;;;;;;;;;;;;;;5072327;28;19907;-67
2022/02/09 17:58:09;;;;;;;;;;;;;;;;;;5075459;28;19908;-68
2022/02/09 18:00:35;;;;;;;;;;;;;;;;;;5085483;28;19971;-68
2022/02/09 18:03:01;;;;;;;;;;;;;;;;;;5085621;28;19909;-68
2022/02/09 18:08:03;;;;;;;;;;;;;;;;;;5080356;28;20289;-67
2022/02/09 19:05:57;;;;;;;;;;;;;;;;;;5078351;28;19920;-64
2022/02/09 19:32:43;;;;;;;;;;;;;;;;;;5088145;28;19986;-64
2022/02/09 19:48:21;;;;;;;;;;;;;;;;;;5066426;28;19916;-65
2022/02/09 19:51:15;;;;;;;;;;;;;;;;;;5091355;28;19919;-64
2022/02/09 19:53:56;;;;;;;;;;;;;;;;;;5089896;28;19908;-66
2022/02/09 19:56:24;;;;;;;;;;;;;;;;;;5090261;28;19908;-67
2022/02/09 19:58:58;;;;;;;;;;;;;;;;;;5084878;28;20423;-66
2022/02/09 20:01:27;;;;;;;;;;;;;;;;;;5087622;28;19908;-66
2022/02/09 20:03:53;;;;;;;;;;;;;;;;;;5082138;28;19912;-66
2022/02/09 20:06:19;;;;;;;;;;;;;;;;;;5070412;28;20465;-65
2022/02/09 20:08:45;;;;;;;;;;;;;;;;;;5070787;28;20000;-65
2022/02/09 20:11:14;;;;;;;;;;;;;;;;;;5086131;28;19905;-66
2022/02/09 20:13:40;;;;;;;;;;;;;;;;;;5069876;28;19917;-65
2022/02/09 20:16:06;;;;;;;;;;;;;;;;;;5071689;28;19912;-66
2022/02/09 20:18:32;;;;;;;;;;;;;;;;;;5072159;28;19989;-65
2022/02/09 20:20:58;;;;;;;;;;;;;;;;;;5077158;28;19970;-65
2022/02/09 20:23:24;;;;;;;;;;;;;;;;;;5074480;28;19920;-65
2022/02/09 20:25:50;;;;;;;;;;;;;;;;;;5073954;28;19915;-65
2022/02/09 20:28:17;;;;;;;;;;;;;;;;;;5072093;28;19923;-65
2022/02/09 20:30:48;;;;;;;;;;;;;;;;;;5071585;28;19943;-65
2022/02/09 20:33:19;;;;;;;;;;;;;;;;;;5069161;28;19908;-65
2022/02/09 20:35:45;;;;;;;;;;;;;;;;;;5070875;28;19908;-65
2022/02/09 20:38:17;;;;;;;;;;;;;;;;;;5067991;28;19908;-65
2022/02/09 20:40:56;;;;;;;;;;;;;;;;;;5068377;28;19947;-65
2022/02/09 20:43:22;;;;;;;;;;;;;;;;;;5065430;28;20007;-65
2022/02/09 20:45:51;;;;;;;;;;;;;;;;;;5068963;28;19915;-65
2022/02/09 20:48:22;;;;;;;;;;;;;;;;;;5066125;28;19912;-65
2022/02/09 20:50:48;;;;;;;;;;;;;;;;;;5070262;28;20026;-66
2022/02/09 20:53:14;;;;;;;;;;;;;;;;;;5085060;28;20370;-65
2022/02/09 20:55:40;;;;;;;;;;;;;;;;;;5069680;28;19961;-65
2022/02/09 20:58:06;;;;;;;;;;;;;;;;;;5069741;28;20367;-65
2022/02/09 21:03:22;;;;;;;;;;;;;;;;;;5070615;28;19974;-66
2022/02/09 21:54:41;;;;;;;;;;;;;;;;;;5083761;28;19923;-66
2022/02/09 21:58:20;;;;;;;;;;;;;;;;;;5052279;28;20022;-66
2022/02/09 22:19:30;;;;;;;;;;;;;;;;;;5058309;28;19911;-66
2022/02/09 22:22:04;;;;;;;;;;;;;;;;;;5083001;28;19916;-66
2022/02/09 22:56:49;;;;;;;;;;;;;;;;;;5083721;28;20459;-66
2022/02/09 22:59:23;;;;;;;;;;;;;;;;;;5085257;28;19947;-65
2022/02/09 23:01:57;;;;;;;;;;;;;;;;;;5082743;28;19912;-65
